Hlavní strana
METAR-TAF:

METAR-TAF

Letiště :

Bainbridge, Georgie, Spojené státy americké

zeměpisná šířka: 30-58N, zeměpisná délka: 084-38W, výška: 43 m

Aktuální stav počasí

Zpráva byla vytvořena před 23 minutami, v 02:35 UTC
Jižní vítr 14 kt
Teplota 17°C
Vlhkost vzduchu 94%
Tlak 1021 hPa
Viditelnost: 16.1 km
Polojasno ve výšce 10000 ft
Oblačno až skoro zataženo ve výšce 12000 ft
slabý déšť

METAR: KBGE 190235Z AUTO 19014KT 10SM -RA SCT100 BKN120 17/16 A3016 RMK AO2 T01680156

Čas: 21:58 (02:58 UTC)


TAF: chybějící

Stav a předpovědi počasí z více než 4 000 letišť (zprávy METAR a TAF).

Červené a žluté tečky na mapě představují dostupné meteorologické stanice.

Když kurzor umístíte na tečku, zobrazí se název stanice.

Pak kliknutím zobrazíte stav a předpověď počasí.

Chcete-li změnit mapu, kliknutím na zelené tlačítko se znaménkem +mapu přiblížíte, kliknutím na zelené tlačítko se znaménkem – mapu oddálíte a kliknutím na zelené šipky přejdete na sousední mapy.


METAR-TAF: